sensor_id;sensor_type;location;lat;lon;timestamp;P1;durP1;ratioP1;P2;durP2;ratioP2
76425;SDS011;65258;42.680;23.266;2022-12-07T00:01:07;35.38;;;17.10;;
76425;SDS011;65258;42.680;23.266;2022-12-07T00:03:43;32.40;;;16.33;;
76425;SDS011;65258;42.680;23.266;2022-12-07T00:06:10;35.70;;;17.45;;
76425;SDS011;65258;42.680;23.266;2022-12-07T00:08:38;30.25;;;16.50;;
76425;SDS011;65258;42.680;23.266;2022-12-07T00:11:05;38.63;;;18.52;;
76425;SDS011;65258;42.680;23.266;2022-12-07T00:13:31;35.63;;;17.40;;
76425;SDS011;65258;42.680;23.266;2022-12-07T00:18:31;37.08;;;18.08;;
76425;SDS011;65258;42.680;23.266;2022-12-07T00:21:00;30.85;;;15.00;;
76425;SDS011;65258;42.680;23.266;2022-12-07T00:23:27;31.80;;;16.17;;
76425;SDS011;65258;42.680;23.266;2022-12-07T00:25:53;36.95;;;17.38;;
76425;SDS011;65258;42.680;23.266;2022-12-07T00:28:18;37.10;;;18.02;;
76425;SDS011;65258;42.680;23.266;2022-12-07T00:30:44;38.20;;;18.50;;
76425;SDS011;65258;42.680;23.266;2022-12-07T00:33:09;36.47;;;18.23;;
76425;SDS011;65258;42.680;23.266;2022-12-07T00:35:35;33.05;;;16.67;;
76425;SDS011;65258;42.680;23.266;2022-12-07T00:38:00;32.60;;;16.90;;
76425;SDS011;65258;42.680;23.266;2022-12-07T00:40:26;38.55;;;17.38;;
76425;SDS011;65258;42.680;23.266;2022-12-07T00:42:51;36.03;;;17.30;;
76425;SDS011;65258;42.680;23.266;2022-12-07T00:45:17;35.00;;;19.48;;
76425;SDS011;65258;42.680;23.266;2022-12-07T00:47:42;38.83;;;18.42;;
76425;SDS011;65258;42.680;23.266;2022-12-07T00:50:08;34.30;;;17.55;;
76425;SDS011;65258;42.680;23.266;2022-12-07T00:52:34;36.70;;;18.25;;
76425;SDS011;65258;42.680;23.266;2022-12-07T00:54:59;33.53;;;16.85;;
76425;SDS011;65258;42.680;23.266;2022-12-07T00:57:25;33.25;;;16.45;;
76425;SDS011;65258;42.680;23.266;2022-12-07T00:59:50;33.38;;;16.55;;
76425;SDS011;65258;42.680;23.266;2022-12-07T01:02:20;28.58;;;14.95;;
76425;SDS011;65258;42.680;23.266;2022-12-07T01:04:46;36.38;;;17.50;;
76425;SDS011;65258;42.680;23.266;2022-12-07T01:07:11;33.30;;;16.40;;
76425;SDS011;65258;42.680;23.266;2022-12-07T01:09:37;33.15;;;16.60;;
76425;SDS011;65258;42.680;23.266;2022-12-07T01:12:02;32.17;;;14.85;;
76425;SDS011;65258;42.680;23.266;2022-12-07T01:14:28;30.30;;;14.90;;
76425;SDS011;65258;42.680;23.266;2022-12-07T01:16:54;28.10;;;15.63;;
76425;SDS011;65258;42.680;23.266;2022-12-07T01:19:19;31.70;;;14.82;;
76425;SDS011;65258;42.680;23.266;2022-12-07T01:21:44;27.73;;;15.52;;
76425;SDS011;65258;42.680;23.266;2022-12-07T01:24:10;29.02;;;15.52;;
76425;SDS011;65258;42.680;23.266;2022-12-07T01:26:36;30.33;;;14.85;;
76425;SDS011;65258;42.680;23.266;2022-12-07T01:29:02;30.17;;;14.98;;
76425;SDS011;65258;42.680;23.266;2022-12-07T01:31:28;28.42;;;14.73;;
76425;SDS011;65258;42.680;23.266;2022-12-07T01:33:55;33.28;;;15.98;;
76425;SDS011;65258;42.680;23.266;2022-12-07T01:36:23;31.48;;;15.80;;
76425;SDS011;65258;42.680;23.266;2022-12-07T01:39:06;33.65;;;15.95;;
76425;SDS011;65258;42.680;23.266;2022-12-07T01:41:33;32.58;;;15.88;;
76425;SDS011;65258;42.680;23.266;2022-12-07T01:46:37;39.30;;;18.67;;
76425;SDS011;65258;42.680;23.266;2022-12-07T01:49:04;32.15;;;16.33;;
76425;SDS011;65258;42.680;23.266;2022-12-07T01:51:32;28.65;;;15.95;;
76425;SDS011;65258;42.680;23.266;2022-12-07T01:53:59;30.13;;;14.90;;
76425;SDS011;65258;42.680;23.266;2022-12-07T01:56:26;26.98;;;15.18;;
76425;SDS011;65258;42.680;23.266;2022-12-07T01:58:53;30.00;;;15.32;;
76425;SDS011;65258;42.680;23.266;2022-12-07T02:01:21;25.40;;;13.18;;
76425;SDS011;65258;42.680;23.266;2022-12-07T02:03:47;29.20;;;14.68;;
76425;SDS011;65258;42.680;23.266;2022-12-07T02:06:15;29.60;;;14.93;;
76425;SDS011;65258;42.680;23.266;2022-12-07T02:08:44;28.85;;;15.07;;
76425;SDS011;65258;42.680;23.266;2022-12-07T02:11:11;30.38;;;15.43;;
76425;SDS011;65258;42.680;23.266;2022-12-07T02:13:37;36.63;;;14.93;;
76425;SDS011;65258;42.680;23.266;2022-12-07T02:21:36;30.20;;;14.48;;
76425;SDS011;65258;42.680;23.266;2022-12-07T02:29:36;26.92;;;12.82;;
76425;SDS011;65258;42.680;23.266;2022-12-07T02:32:16;32.90;;;15.55;;
76425;SDS011;65258;42.680;23.266;2022-12-07T02:35:02;31.60;;;13.68;;
76425;SDS011;65258;42.680;23.266;2022-12-07T02:37:39;28.67;;;15.00;;
76425;SDS011;65258;42.680;23.266;2022-12-07T02:45:43;29.30;;;13.60;;
76425;SDS011;65258;42.680;23.266;2022-12-07T02:50:38;25.75;;;12.55;;
76425;SDS011;65258;42.680;23.266;2022-12-07T02:53:27;27.38;;;12.98;;
76425;SDS011;65258;42.680;23.266;2022-12-07T02:55:57;24.10;;;12.75;;
76425;SDS011;65258;42.680;23.266;2022-12-07T02:58:29;24.75;;;13.43;;
76425;SDS011;65258;42.680;23.266;2022-12-07T03:03:34;30.58;;;12.57;;
76425;SDS011;65258;42.680;23.266;2022-12-07T03:06:15;26.33;;;12.40;;
76425;SDS011;65258;42.680;23.266;2022-12-07T03:09:22;25.25;;;12.32;;
76425;SDS011;65258;42.680;23.266;2022-12-07T03:11:49;24.70;;;11.70;;
76425;SDS011;65258;42.680;23.266;2022-12-07T03:14:23;24.88;;;12.52;;
76425;SDS011;65258;42.680;23.266;2022-12-07T03:16:55;26.25;;;11.93;;
76425;SDS011;65258;42.680;23.266;2022-12-07T03:19:26;23.45;;;12.45;;
76425;SDS011;65258;42.680;23.266;2022-12-07T03:22:05;28.65;;;14.23;;
76425;SDS011;65258;42.680;23.266;2022-12-07T03:24:37;31.60;;;13.80;;
76425;SDS011;65258;42.680;23.266;2022-12-07T03:27:08;25.60;;;12.52;;
76425;SDS011;65258;42.680;23.266;2022-12-07T03:29:42;24.75;;;14.18;;
76425;SDS011;65258;42.680;23.266;2022-12-07T03:32:15;30.38;;;14.80;;
76425;SDS011;65258;42.680;23.266;2022-12-07T03:34:56;29.85;;;14.75;;
76425;SDS011;65258;42.680;23.266;2022-12-07T03:37:36;21.55;;;12.25;;
76425;SDS011;65258;42.680;23.266;2022-12-07T03:42:43;27.85;;;13.50;;
76425;SDS011;65258;42.680;23.266;2022-12-07T03:45:09;28.85;;;13.10;;
76425;SDS011;65258;42.680;23.266;2022-12-07T03:50:24;27.58;;;14.10;;
76425;SDS011;65258;42.680;23.266;2022-12-07T03:53:40;30.25;;;13.48;;
76425;SDS011;65258;42.680;23.266;2022-12-07T03:56:11;29.13;;;13.98;;
76425;SDS011;65258;42.680;23.266;2022-12-07T03:58:38;25.55;;;13.13;;
76425;SDS011;65258;42.680;23.266;2022-12-07T04:01:05;32.00;;;14.15;;
76425;SDS011;65258;42.680;23.266;2022-12-07T04:03:30;30.52;;;12.93;;
76425;SDS011;65258;42.680;23.266;2022-12-07T04:05:56;27.70;;;13.77;;
76425;SDS011;65258;42.680;23.266;2022-12-07T04:10:49;26.33;;;13.07;;
76425;SDS011;65258;42.680;23.266;2022-12-07T04:13:15;28.13;;;13.18;;
76425;SDS011;65258;42.680;23.266;2022-12-07T04:15:40;29.95;;;13.82;;
76425;SDS011;65258;42.680;23.266;2022-12-07T04:18:06;25.65;;;13.15;;
76425;SDS011;65258;42.680;23.266;2022-12-07T04:20:31;27.58;;;12.90;;
76425;SDS011;65258;42.680;23.266;2022-12-07T04:22:57;26.52;;;12.32;;
76425;SDS011;65258;42.680;23.266;2022-12-07T04:25:23;25.45;;;12.32;;
76425;SDS011;65258;42.680;23.266;2022-12-07T04:27:48;28.48;;;12.30;;
76425;SDS011;65258;42.680;23.266;2022-12-07T04:30:14;24.88;;;11.85;;
76425;SDS011;65258;42.680;23.266;2022-12-07T04:32:40;28.13;;;12.98;;
76425;SDS011;65258;42.680;23.266;2022-12-07T04:35:05;28.63;;;13.20;;
76425;SDS011;65258;42.680;23.266;2022-12-07T04:37:32;27.90;;;12.98;;
76425;SDS011;65258;42.680;23.266;2022-12-07T04:39:57;29.40;;;12.73;;
76425;SDS011;65258;42.680;23.266;2022-12-07T04:42:23;24.65;;;13.63;;
76425;SDS011;65258;42.680;23.266;2022-12-07T04:44:49;24.77;;;12.27;;
76425;SDS011;65258;42.680;23.266;2022-12-07T04:47:15;23.75;;;12.00;;
76425;SDS011;65258;42.680;23.266;2022-12-07T04:49:41;29.75;;;13.68;;
76425;SDS011;65258;42.680;23.266;2022-12-07T04:52:07;27.52;;;12.60;;
76425;SDS011;65258;42.680;23.266;2022-12-07T04:54:34;28.17;;;12.40;;
76425;SDS011;65258;42.680;23.266;2022-12-07T04:56:59;26.92;;;12.77;;
76425;SDS011;65258;42.680;23.266;2022-12-07T04:59:25;28.02;;;13.57;;
76425;SDS011;65258;42.680;23.266;2022-12-07T05:01:50;24.30;;;11.70;;
76425;SDS011;65258;42.680;23.266;2022-12-07T05:04:16;30.50;;;13.23;;
76425;SDS011;65258;42.680;23.266;2022-12-07T05:06:43;30.98;;;13.13;;
76425;SDS011;65258;42.680;23.266;2022-12-07T05:09:08;29.23;;;12.38;;
76425;SDS011;65258;42.680;23.266;2022-12-07T05:11:34;30.98;;;14.27;;
76425;SDS011;65258;42.680;23.266;2022-12-07T05:14:03;25.13;;;12.32;;
76425;SDS011;65258;42.680;23.266;2022-12-07T05:16:31;31.98;;;14.48;;
76425;SDS011;65258;42.680;23.266;2022-12-07T05:18:57;51.03;;;22.25;;
76425;SDS011;65258;42.680;23.266;2022-12-07T05:21:23;76.80;;;34.78;;
76425;SDS011;65258;42.680;23.266;2022-12-07T05:23:49;58.50;;;28.20;;
76425;SDS011;65258;42.680;23.266;2022-12-07T05:26:14;29.08;;;15.10;;
76425;SDS011;65258;42.680;23.266;2022-12-07T05:28:40;33.63;;;17.00;;
76425;SDS011;65258;42.680;23.266;2022-12-07T05:31:05;30.50;;;15.60;;
76425;SDS011;65258;42.680;23.266;2022-12-07T05:33:31;32.70;;;15.02;;
76425;SDS011;65258;42.680;23.266;2022-12-07T05:35:57;30.95;;;16.17;;
76425;SDS011;65258;42.680;23.266;2022-12-07T05:38:22;37.70;;;17.70;;
76425;SDS011;65258;42.680;23.266;2022-12-07T05:40:48;35.10;;;16.30;;
76425;SDS011;65258;42.680;23.266;2022-12-07T05:43:13;38.90;;;17.85;;
76425;SDS011;65258;42.680;23.266;2022-12-07T05:45:39;33.08;;;15.30;;
76425;SDS011;65258;42.680;23.266;2022-12-07T05:48:04;32.50;;;15.82;;
76425;SDS011;65258;42.680;23.266;2022-12-07T05:50:30;31.90;;;16.73;;
76425;SDS011;65258;42.680;23.266;2022-12-07T05:53:01;35.17;;;15.07;;
76425;SDS011;65258;42.680;23.266;2022-12-07T05:55:27;32.08;;;14.88;;
76425;SDS011;65258;42.680;23.266;2022-12-07T05:57:52;30.75;;;14.95;;
76425;SDS011;65258;42.680;23.266;2022-12-07T06:00:36;31.95;;;15.70;;
76425;SDS011;65258;42.680;23.266;2022-12-07T06:03:02;36.72;;;17.92;;
76425;SDS011;65258;42.680;23.266;2022-12-07T06:05:28;34.28;;;16.65;;
76425;SDS011;65258;42.680;23.266;2022-12-07T06:07:53;43.40;;;22.92;;
76425;SDS011;65258;42.680;23.266;2022-12-07T06:10:19;48.35;;;24.00;;
76425;SDS011;65258;42.680;23.266;2022-12-07T06:12:44;44.97;;;22.23;;
76425;SDS011;65258;42.680;23.266;2022-12-07T06:15:11;40.17;;;22.60;;
76425;SDS011;65258;42.680;23.266;2022-12-07T06:17:38;43.10;;;24.05;;
76425;SDS011;65258;42.680;23.266;2022-12-07T06:20:04;44.80;;;22.58;;
76425;SDS011;65258;42.680;23.266;2022-12-07T06:22:30;46.40;;;22.40;;
76425;SDS011;65258;42.680;23.266;2022-12-07T06:24:56;41.25;;;19.98;;
76425;SDS011;65258;42.680;23.266;2022-12-07T06:27:21;39.00;;;19.05;;
76425;SDS011;65258;42.680;23.266;2022-12-07T06:29:47;45.28;;;23.33;;
76425;SDS011;65258;42.680;23.266;2022-12-07T06:32:13;44.55;;;22.80;;
76425;SDS011;65258;42.680;23.266;2022-12-07T06:34:38;43.50;;;22.08;;
76425;SDS011;65258;42.680;23.266;2022-12-07T06:37:04;42.95;;;19.70;;
76425;SDS011;65258;42.680;23.266;2022-12-07T06:39:30;42.92;;;21.33;;
76425;SDS011;65258;42.680;23.266;2022-12-07T06:41:56;36.40;;;17.92;;
76425;SDS011;65258;42.680;23.266;2022-12-07T06:44:22;40.53;;;19.70;;
76425;SDS011;65258;42.680;23.266;2022-12-07T06:46:48;31.55;;;17.23;;
76425;SDS011;65258;42.680;23.266;2022-12-07T06:49:15;34.42;;;16.15;;
76425;SDS011;65258;42.680;23.266;2022-12-07T06:51:40;35.03;;;17.55;;
76425;SDS011;65258;42.680;23.266;2022-12-07T06:54:08;34.05;;;17.17;;
76425;SDS011;65258;42.680;23.266;2022-12-07T06:58:59;34.88;;;18.60;;
76425;SDS011;65258;42.680;23.266;2022-12-07T07:01:25;38.75;;;21.73;;
76425;SDS011;65258;42.680;23.266;2022-12-07T07:03:51;41.67;;;21.88;;
76425;SDS011;65258;42.680;23.266;2022-12-07T07:06:17;35.75;;;18.55;;
76425;SDS011;65258;42.680;23.266;2022-12-07T07:08:43;32.42;;;17.25;;
76425;SDS011;65258;42.680;23.266;2022-12-07T07:11:10;35.45;;;18.13;;
76425;SDS011;65258;42.680;23.266;2022-12-07T07:13:35;35.13;;;17.48;;
76425;SDS011;65258;42.680;23.266;2022-12-07T07:16:01;33.05;;;17.05;;
76425;SDS011;65258;42.680;23.266;2022-12-07T07:18:27;32.28;;;17.38;;
76425;SDS011;65258;42.680;23.266;2022-12-07T07:20:53;35.53;;;16.73;;
76425;SDS011;65258;42.680;23.266;2022-12-07T07:23:20;33.53;;;16.90;;
76425;SDS011;65258;42.680;23.266;2022-12-07T07:25:46;30.88;;;16.10;;
76425;SDS011;65258;42.680;23.266;2022-12-07T07:28:12;35.33;;;18.00;;
76425;SDS011;65258;42.680;23.266;2022-12-07T07:30:37;32.70;;;17.10;;
76425;SDS011;65258;42.680;23.266;2022-12-07T07:33:03;33.25;;;17.83;;
76425;SDS011;65258;42.680;23.266;2022-12-07T07:35:30;33.55;;;17.77;;
76425;SDS011;65258;42.680;23.266;2022-12-07T07:40:23;35.40;;;16.42;;
76425;SDS011;65258;42.680;23.266;2022-12-07T07:42:50;31.65;;;15.52;;
76425;SDS011;65258;42.680;23.266;2022-12-07T07:45:17;31.35;;;15.02;;
76425;SDS011;65258;42.680;23.266;2022-12-07T07:47:43;32.22;;;16.08;;
76425;SDS011;65258;42.680;23.266;2022-12-07T07:50:09;31.20;;;16.73;;
76425;SDS011;65258;42.680;23.266;2022-12-07T07:52:35;41.67;;;17.05;;
76425;SDS011;65258;42.680;23.266;2022-12-07T07:55:01;34.33;;;16.65;;
76425;SDS011;65258;42.680;23.266;2022-12-07T07:57:26;37.03;;;17.38;;
76425;SDS011;65258;42.680;23.266;2022-12-07T07:59:52;34.42;;;18.23;;
76425;SDS011;65258;42.680;23.266;2022-12-07T08:02:19;39.20;;;18.60;;
76425;SDS011;65258;42.680;23.266;2022-12-07T08:04:45;41.03;;;20.10;;
76425;SDS011;65258;42.680;23.266;2022-12-07T08:07:11;43.38;;;21.58;;
76425;SDS011;65258;42.680;23.266;2022-12-07T08:09:37;32.80;;;16.95;;
76425;SDS011;65258;42.680;23.266;2022-12-07T08:12:04;36.53;;;17.63;;
76425;SDS011;65258;42.680;23.266;2022-12-07T08:14:32;31.02;;;15.95;;
76425;SDS011;65258;42.680;23.266;2022-12-07T08:16:58;39.20;;;22.40;;
76425;SDS011;65258;42.680;23.266;2022-12-07T08:19:23;39.78;;;21.23;;
76425;SDS011;65258;42.680;23.266;2022-12-07T08:21:49;40.33;;;18.70;;
76425;SDS011;65258;42.680;23.266;2022-12-07T08:24:15;36.78;;;18.63;;
76425;SDS011;65258;42.680;23.266;2022-12-07T08:26:40;33.70;;;17.00;;
76425;SDS011;65258;42.680;23.266;2022-12-07T08:29:06;35.58;;;17.13;;
76425;SDS011;65258;42.680;23.266;2022-12-07T08:31:32;37.40;;;18.58;;
76425;SDS011;65258;42.680;23.266;2022-12-07T08:33:58;41.30;;;19.65;;
76425;SDS011;65258;42.680;23.266;2022-12-07T08:36:24;40.95;;;19.65;;
76425;SDS011;65258;42.680;23.266;2022-12-07T08:38:49;42.28;;;20.92;;
76425;SDS011;65258;42.680;23.266;2022-12-07T08:41:15;36.42;;;18.83;;
76425;SDS011;65258;42.680;23.266;2022-12-07T08:43:42;37.25;;;19.75;;
76425;SDS011;65258;42.680;23.266;2022-12-07T08:48:52;40.35;;;20.85;;
76425;SDS011;65258;42.680;23.266;2022-12-07T08:51:22;40.78;;;20.05;;
76425;SDS011;65258;42.680;23.266;2022-12-07T08:53:48;43.60;;;20.10;;
76425;SDS011;65258;42.680;23.266;2022-12-07T08:56:16;41.20;;;19.73;;
76425;SDS011;65258;42.680;23.266;2022-12-07T08:58:42;42.35;;;21.02;;
76425;SDS011;65258;42.680;23.266;2022-12-07T09:01:08;45.90;;;19.38;;
76425;SDS011;65258;42.680;23.266;2022-12-07T09:03:33;41.35;;;21.20;;
76425;SDS011;65258;42.680;23.266;2022-12-07T09:05:59;45.67;;;21.33;;
76425;SDS011;65258;42.680;23.266;2022-12-07T09:08:26;43.80;;;21.17;;
76425;SDS011;65258;42.680;23.266;2022-12-07T09:11:01;45.50;;;20.77;;
76425;SDS011;65258;42.680;23.266;2022-12-07T09:13:27;45.38;;;22.17;;
76425;SDS011;65258;42.680;23.266;2022-12-07T09:15:52;47.47;;;23.88;;
76425;SDS011;65258;42.680;23.266;2022-12-07T09:18:18;48.78;;;23.30;;
76425;SDS011;65258;42.680;23.266;2022-12-07T09:20:43;44.78;;;22.92;;
76425;SDS011;65258;42.680;23.266;2022-12-07T09:23:09;46.22;;;21.65;;
76425;SDS011;65258;42.680;23.266;2022-12-07T09:25:35;43.30;;;20.35;;
76425;SDS011;65258;42.680;23.266;2022-12-07T09:28:01;48.65;;;21.98;;
76425;SDS011;65258;42.680;23.266;2022-12-07T09:30:26;41.63;;;20.75;;
76425;SDS011;65258;42.680;23.266;2022-12-07T09:32:54;40.20;;;22.60;;
76425;SDS011;65258;42.680;23.266;2022-12-07T09:35:20;43.50;;;22.63;;
76425;SDS011;65258;42.680;23.266;2022-12-07T09:37:46;41.13;;;20.52;;
76425;SDS011;65258;42.680;23.266;2022-12-07T09:40:12;41.45;;;20.52;;
76425;SDS011;65258;42.680;23.266;2022-12-07T09:42:39;44.78;;;21.33;;
76425;SDS011;65258;42.680;23.266;2022-12-07T09:45:12;43.30;;;22.33;;
76425;SDS011;65258;42.680;23.266;2022-12-07T09:47:41;36.92;;;18.23;;
76425;SDS011;65258;42.680;23.266;2022-12-07T09:50:12;36.33;;;19.15;;
76425;SDS011;65258;42.680;23.266;2022-12-07T09:52:40;40.53;;;19.38;;
76425;SDS011;65258;42.680;23.266;2022-12-07T09:55:09;37.65;;;19.60;;
76425;SDS011;65258;42.680;23.266;2022-12-07T09:57:37;32.05;;;17.77;;
76425;SDS011;65258;42.680;23.266;2022-12-07T10:00:06;34.55;;;17.65;;
76425;SDS011;65258;42.680;23.266;2022-12-07T10:02:38;38.85;;;17.60;;
76425;SDS011;65258;42.680;23.266;2022-12-07T10:05:07;33.63;;;17.10;;
76425;SDS011;65258;42.680;23.266;2022-12-07T10:07:38;32.67;;;16.50;;
76425;SDS011;65258;42.680;23.266;2022-12-07T10:10:04;33.17;;;16.45;;
76425;SDS011;65258;42.680;23.266;2022-12-07T10:13:01;35.30;;;16.70;;
76425;SDS011;65258;42.680;23.266;2022-12-07T10:18:26;30.08;;;14.70;;
76425;SDS011;65258;42.680;23.266;2022-12-07T10:23:42;32.15;;;16.08;;
76425;SDS011;65258;42.680;23.266;2022-12-07T10:28:55;28.67;;;14.55;;
76425;SDS011;65258;42.680;23.266;2022-12-07T10:31:24;33.22;;;16.67;;
76425;SDS011;65258;42.680;23.266;2022-12-07T10:33:59;31.90;;;17.42;;
76425;SDS011;65258;42.680;23.266;2022-12-07T10:41:55;28.25;;;15.23;;
76425;SDS011;65258;42.680;23.266;2022-12-07T10:44:26;28.63;;;15.43;;
76425;SDS011;65258;42.680;23.266;2022-12-07T10:46:57;30.30;;;16.13;;
76425;SDS011;65258;42.680;23.266;2022-12-07T11:01:07;28.52;;;15.35;;
76425;SDS011;65258;42.680;23.266;2022-12-07T11:06:51;29.88;;;14.25;;
76425;SDS011;65258;42.680;23.266;2022-12-07T11:33:35;23.67;;;13.10;;
76425;SDS011;65258;42.680;23.266;2022-12-07T11:38:50;22.92;;;11.57;;
76425;SDS011;65258;42.680;23.266;2022-12-07T11:41:20;25.15;;;11.90;;
76425;SDS011;65258;42.680;23.266;2022-12-07T11:44:02;25.42;;;12.75;;
76425;SDS011;65258;42.680;23.266;2022-12-07T11:47:02;26.13;;;13.32;;
76425;SDS011;65258;42.680;23.266;2022-12-07T11:49:43;25.80;;;12.85;;
76425;SDS011;65258;42.680;23.266;2022-12-07T11:52:16;25.17;;;12.45;;
76425;SDS011;65258;42.680;23.266;2022-12-07T11:54:49;22.58;;;12.45;;
76425;SDS011;65258;42.680;23.266;2022-12-07T11:57:20;21.48;;;12.70;;
76425;SDS011;65258;42.680;23.266;2022-12-07T11:59:56;26.00;;;13.32;;
76425;SDS011;65258;42.680;23.266;2022-12-07T12:03:11;25.90;;;13.25;;
76425;SDS011;65258;42.680;23.266;2022-12-07T12:05:17;24.40;;;11.93;;
76425;SDS011;65258;42.680;23.266;2022-12-07T12:07:47;29.20;;;13.07;;
76425;SDS011;65258;42.680;23.266;2022-12-07T12:10:24;28.75;;;13.18;;
76425;SDS011;65258;42.680;23.266;2022-12-07T12:18:31;23.73;;;12.35;;
76425;SDS011;65258;42.680;23.266;2022-12-07T12:21:03;25.05;;;12.80;;
76425;SDS011;65258;42.680;23.266;2022-12-07T12:23:44;30.55;;;14.20;;
76425;SDS011;65258;42.680;23.266;2022-12-07T12:26:20;23.63;;;12.80;;
76425;SDS011;65258;42.680;23.266;2022-12-07T12:31:29;25.42;;;13.10;;
76425;SDS011;65258;42.680;23.266;2022-12-07T12:34:00;28.88;;;11.82;;
76425;SDS011;65258;42.680;23.266;2022-12-07T12:44:38;22.52;;;12.70;;
76425;SDS011;65258;42.680;23.266;2022-12-07T12:51:52;22.65;;;13.05;;
76425;SDS011;65258;42.680;23.266;2022-12-07T12:54:23;18.67;;;11.38;;
76425;SDS011;65258;42.680;23.266;2022-12-07T13:20:55;24.13;;;11.45;;
76425;SDS011;65258;42.680;23.266;2022-12-07T13:23:25;24.20;;;13.10;;
76425;SDS011;65258;42.680;23.266;2022-12-07T13:28:25;19.83;;;11.27;;
76425;SDS011;65258;42.680;23.266;2022-12-07T13:31:09;28.98;;;12.57;;
76425;SDS011;65258;42.680;23.266;2022-12-07T13:33:41;19.60;;;10.48;;
76425;SDS011;65258;42.680;23.266;2022-12-07T13:36:14;22.42;;;11.73;;
76425;SDS011;65258;42.680;23.266;2022-12-07T13:38:49;27.20;;;12.93;;
76425;SDS011;65258;42.680;23.266;2022-12-07T13:41:29;26.05;;;12.93;;
76425;SDS011;65258;42.680;23.266;2022-12-07T13:44:02;22.35;;;12.38;;
76425;SDS011;65258;42.680;23.266;2022-12-07T13:51:48;23.48;;;11.02;;
76425;SDS011;65258;42.680;23.266;2022-12-07T13:54:15;22.23;;;10.90;;
76425;SDS011;65258;42.680;23.266;2022-12-07T13:56:41;17.13;;;9.60;;
76425;SDS011;65258;42.680;23.266;2022-12-07T13:59:12;21.75;;;9.50;;
76425;SDS011;65258;42.680;23.266;2022-12-07T14:01:41;17.33;;;9.57;;
76425;SDS011;65258;42.680;23.266;2022-12-07T14:07:22;18.27;;;9.45;;
76425;SDS011;65258;42.680;23.266;2022-12-07T14:12:50;19.20;;;10.18;;
76425;SDS011;65258;42.680;23.266;2022-12-07T14:15:36;16.23;;;9.63;;
76425;SDS011;65258;42.680;23.266;2022-12-07T14:18:01;19.90;;;9.38;;
76425;SDS011;65258;42.680;23.266;2022-12-07T14:20:32;18.92;;;9.30;;
76425;SDS011;65258;42.680;23.266;2022-12-07T14:23:02;17.30;;;7.97;;
76425;SDS011;65258;42.680;23.266;2022-12-07T14:25:48;18.35;;;9.32;;
76425;SDS011;65258;42.680;23.266;2022-12-07T14:28:28;20.20;;;10.05;;
76425;SDS011;65258;42.680;23.266;2022-12-07T14:30:56;18.75;;;10.30;;
76425;SDS011;65258;42.680;23.266;2022-12-07T14:33:22;18.02;;;9.90;;
76425;SDS011;65258;42.680;23.266;2022-12-07T14:35:48;25.80;;;11.05;;
76425;SDS011;65258;42.680;23.266;2022-12-07T14:38:14;21.88;;;11.30;;
76425;SDS011;65258;42.680;23.266;2022-12-07T14:40:40;22.25;;;11.98;;
76425;SDS011;65258;42.680;23.266;2022-12-07T14:43:08;25.65;;;14.43;;
76425;SDS011;65258;42.680;23.266;2022-12-07T14:45:36;25.02;;;14.00;;
76425;SDS011;65258;42.680;23.266;2022-12-07T14:48:02;30.13;;;13.88;;
76425;SDS011;65258;42.680;23.266;2022-12-07T14:50:28;25.27;;;13.85;;
76425;SDS011;65258;42.680;23.266;2022-12-07T14:52:56;24.95;;;14.48;;
76425;SDS011;65258;42.680;23.266;2022-12-07T14:55:26;28.15;;;13.30;;
76425;SDS011;65258;42.680;23.266;2022-12-07T14:57:56;22.17;;;11.65;;
76425;SDS011;65258;42.680;23.266;2022-12-07T15:00:23;26.40;;;13.27;;
76425;SDS011;65258;42.680;23.266;2022-12-07T15:02:50;21.52;;;13.70;;
76425;SDS011;65258;42.680;23.266;2022-12-07T15:05:16;34.58;;;14.50;;
76425;SDS011;65258;42.680;23.266;2022-12-07T15:07:42;41.15;;;15.88;;
76425;SDS011;65258;42.680;23.266;2022-12-07T15:10:13;28.27;;;14.98;;
76425;SDS011;65258;42.680;23.266;2022-12-07T15:12:44;29.63;;;14.68;;
76425;SDS011;65258;42.680;23.266;2022-12-07T15:15:11;33.22;;;16.40;;
76425;SDS011;65258;42.680;23.266;2022-12-07T15:17:38;43.58;;;21.77;;
76425;SDS011;65258;42.680;23.266;2022-12-07T15:20:04;49.10;;;24.13;;
76425;SDS011;65258;42.680;23.266;2022-12-07T15:22:30;42.50;;;21.35;;
76425;SDS011;65258;42.680;23.266;2022-12-07T15:24:56;46.35;;;20.10;;
76425;SDS011;65258;42.680;23.266;2022-12-07T15:27:22;37.13;;;19.67;;
76425;SDS011;65258;42.680;23.266;2022-12-07T15:29:48;47.72;;;21.58;;
76425;SDS011;65258;42.680;23.266;2022-12-07T15:32:14;41.95;;;22.27;;
76425;SDS011;65258;42.680;23.266;2022-12-07T15:34:39;45.67;;;23.40;;
76425;SDS011;65258;42.680;23.266;2022-12-07T15:37:05;49.08;;;22.65;;
76425;SDS011;65258;42.680;23.266;2022-12-07T15:39:32;47.10;;;22.90;;
76425;SDS011;65258;42.680;23.266;2022-12-07T15:41:57;54.45;;;24.55;;
76425;SDS011;65258;42.680;23.266;2022-12-07T15:44:23;51.38;;;25.50;;
76425;SDS011;65258;42.680;23.266;2022-12-07T15:47:07;65.75;;;31.48;;
76425;SDS011;65258;42.680;23.266;2022-12-07T15:49:33;49.60;;;25.52;;
76425;SDS011;65258;42.680;23.266;2022-12-07T15:52:15;55.80;;;30.30;;
76425;SDS011;65258;42.680;23.266;2022-12-07T15:54:41;56.00;;;27.95;;
76425;SDS011;65258;42.680;23.266;2022-12-07T15:57:06;45.78;;;26.65;;
76425;SDS011;65258;42.680;23.266;2022-12-07T15:59:32;52.72;;;26.63;;
76425;SDS011;65258;42.680;23.266;2022-12-07T16:01:57;95.95;;;47.47;;
76425;SDS011;65258;42.680;23.266;2022-12-07T16:04:23;72.93;;;37.80;;
76425;SDS011;65258;42.680;23.266;2022-12-07T16:06:48;63.88;;;31.60;;
76425;SDS011;65258;42.680;23.266;2022-12-07T16:09:15;56.90;;;27.30;;
76425;SDS011;65258;42.680;23.266;2022-12-07T16:11:41;47.55;;;24.92;;
76425;SDS011;65258;42.680;23.266;2022-12-07T16:14:07;46.20;;;25.70;;
76425;SDS011;65258;42.680;23.266;2022-12-07T16:16:33;49.83;;;24.10;;
76425;SDS011;65258;42.680;23.266;2022-12-07T16:18:58;44.78;;;24.98;;
76425;SDS011;65258;42.680;23.266;2022-12-07T16:21:24;49.15;;;28.85;;
76425;SDS011;65258;42.680;23.266;2022-12-07T16:23:49;53.65;;;27.20;;
76425;SDS011;65258;42.680;23.266;2022-12-07T16:26:16;54.70;;;25.92;;
76425;SDS011;65258;42.680;23.266;2022-12-07T16:28:44;53.28;;;28.73;;
76425;SDS011;65258;42.680;23.266;2022-12-07T16:31:11;70.47;;;35.33;;
76425;SDS011;65258;42.680;23.266;2022-12-07T16:33:38;72.22;;;38.05;;
76425;SDS011;65258;42.680;23.266;2022-12-07T16:36:05;69.43;;;30.70;;
76425;SDS011;65258;42.680;23.266;2022-12-07T16:38:32;61.10;;;31.88;;
76425;SDS011;65258;42.680;23.266;2022-12-07T16:40:58;62.88;;;31.77;;
76425;SDS011;65258;42.680;23.266;2022-12-07T16:43:24;60.50;;;32.65;;
76425;SDS011;65258;42.680;23.266;2022-12-07T16:45:49;63.58;;;31.60;;
76425;SDS011;65258;42.680;23.266;2022-12-07T16:48:15;60.22;;;32.20;;
76425;SDS011;65258;42.680;23.266;2022-12-07T16:50:41;52.45;;;26.42;;
76425;SDS011;65258;42.680;23.266;2022-12-07T16:53:08;58.30;;;31.67;;